Time;durP1;ratioP1;P1;durP2;ratioP2;P2;SDS_P1;SDS_P2;PMS_P1;PMS_P2;Temp;Humidity;BMP_temperature;BMP_pressure;BME280_temperature;BME280_humidity;BME280_pressure;Samples;Min_cycle;Max_cycle;Signal;HPM_P1;HPM_P2
2021/12/20 00:00:23;;;;;;;13.75;8.18;;;;;;;15.55;41.07;93487.41;5003398;28;20061;-91
2021/12/20 00:02:51;;;;;;;6.75;4.25;;;;;;;15.54;41.02;93498.78;5011016;28;20045;-94
2021/12/20 00:05:18;;;;;;;13.57;7.82;;;;;;;15.49;41.35;93494.06;5022846;28;20131;-90
2021/12/20 00:07:44;;;;;;;4.20;3.42;;;;;;;15.53;40.93;93503.50;5034129;28;20060;-91
2021/12/20 00:10:09;;;;;;;5.85;4.15;;;;;;;15.56;40.97;93499.06;5039808;28;20040;-91
2021/12/20 00:12:35;;;;;;;10.95;7.47;;;;;;;15.61;41.08;93495.59;5045329;28;20044;-91
2021/12/20 00:15:00;;;;;;;6.97;3.95;;;;;;;15.54;41.09;93485.91;5046889;28;20044;-93
2021/12/20 00:17:27;;;;;;;6.57;3.80;;;;;;;15.54;41.02;93493.34;5041888;28;20199;-96
2021/12/20 00:19:52;;;;;;;5.20;3.72;;;;;;;15.54;40.85;93498.78;5036429;28;20052;-93
2021/12/20 00:22:19;;;;;;;7.65;5.03;;;;;;;15.54;41.19;93499.53;5044005;28;20044;-96
2021/12/20 00:24:45;;;;;;;7.47;5.05;;;;;;;15.52;40.96;93482.19;5046450;28;20045;-91
2021/12/20 00:27:12;;;;;;;5.55;3.75;;;;;;;15.54;41.01;93480.47;5028541;28;20067;-95
2021/12/20 00:29:38;;;;;;;8.10;5.43;;;;;;;15.51;41.14;93475.25;5040949;28;20511;-93
2021/12/20 00:32:04;;;;;;;5.60;3.65;;;;;;;15.53;41.27;93478.22;5024918;28;20048;-92
2021/12/20 00:34:29;;;;;;;12.65;8.00;;;;;;;15.51;41.48;93472.53;5021996;28;20038;-92
2021/12/20 00:37:03;;;;;;;8.85;5.22;;;;;;;15.52;41.14;93476.75;5021343;28;20103;-94
2021/12/20 00:42:14;;;;;;;6.03;3.95;;;;;;;15.56;40.79;93483.47;5021790;28;20045;-94
2021/12/20 00:44:40;;;;;;;8.48;4.88;;;;;;;15.54;41.02;93488.63;5020054;28;20049;-91
2021/12/20 00:47:06;;;;;;;6.55;4.57;;;;;;;15.54;40.75;93494.09;5038540;28;20045;-94
2021/12/20 00:49:32;;;;;;;7.97;5.13;;;;;;;15.54;40.82;93482.44;5006763;28;20045;-95
2021/12/20 00:51:58;;;;;;;10.98;6.70;;;;;;;15.53;41.20;93491.84;5037576;28;20042;-88
2021/12/20 00:54:24;;;;;;;6.20;3.92;;;;;;;15.52;41.05;93498.53;5034941;28;20052;-89
2021/12/20 00:56:50;;;;;;;5.78;3.97;;;;;;;15.52;40.99;93490.34;5054118;28;20037;-95
2021/12/20 00:59:16;;;;;;;4.43;3.08;;;;;;;15.53;40.82;93500.03;5039321;28;20041;-92
2021/12/20 01:01:41;;;;;;;9.23;6.00;;;;;;;15.53;41.14;93505.47;5040083;28;20037;-91
2021/12/20 01:04:08;;;;;;;6.07;4.15;;;;;;;15.50;41.02;93499.03;5040382;28;20121;-93
2021/12/20 01:06:33;;;;;;;5.80;3.50;;;;;;;15.49;41.29;93505.69;5052320;28;20029;-89
2021/12/20 01:08:59;;;;;;;6.07;3.80;;;;;;;15.54;40.90;93496.81;5042416;28;20071;-94
2021/12/20 01:11:27;;;;;;;7.30;5.28;;;;;;;15.58;41.27;93493.88;5047201;28;20094;-95
2021/12/20 01:13:53;;;;;;;9.43;5.75;;;;;;;15.53;40.95;93481.69;5034658;28;20032;-93
2021/12/20 01:16:28;;;;;;;8.00;5.20;;;;;;;15.55;40.95;93495.56;5027439;28;20596;-91
2021/12/20 01:18:55;;;;;;;7.68;4.22;;;;;;;15.53;41.25;93483.69;5029273;28;20033;-94
2021/12/20 01:21:21;;;;;;;5.38;3.88;;;;;;;15.51;41.08;93489.63;5025883;28;20104;-92
2021/12/20 01:23:46;;;;;;;4.75;3.38;;;;;;;15.53;40.81;93478.22;5042628;28;20040;-94
2021/12/20 01:26:12;;;;;;;6.35;3.88;;;;;;;15.60;40.96;93475.78;5024707;28;20443;-92
2021/12/20 01:28:39;;;;;;;6.00;3.58;;;;;;;15.57;40.92;93468.63;5026968;28;20037;-91
2021/12/20 01:31:05;;;;;;;5.85;3.85;;;;;;;15.60;40.98;93472.31;5027042;28;20041;-95
2021/12/20 01:33:30;;;;;;;5.60;4.13;;;;;;;15.56;40.78;93475.31;5027672;28;20416;-95
2021/12/20 01:35:56;;;;;;;4.53;3.17;;;;;;;15.53;40.96;93475.50;5023730;28;20041;-91
2021/12/20 01:38:22;;;;;;;5.05;3.30;;;;;;;15.60;40.90;93472.31;5023213;28;20049;-92
2021/12/20 01:40:48;;;;;;;8.52;5.60;;;;;;;15.52;41.06;93463.84;5005125;28;20040;-92
2021/12/20 01:43:16;;;;;;;5.45;3.33;;;;;;;15.52;41.12;93472.03;5023365;28;20037;-93
2021/12/20 01:45:41;;;;;;;4.03;3.25;;;;;;;15.55;40.84;93475.75;5026380;28;20083;-92
2021/12/20 01:48:10;;;;;;;5.00;3.20;;;;;;;15.54;40.81;93480.47;5027092;28;20033;-92
2021/12/20 01:51:17;;;;;;;8.23;5.18;;;;;;;15.56;41.03;93480.00;5044680;28;20579;-91
2021/12/20 01:53:38;;;;;;;7.85;4.15;;;;;;;15.52;40.88;93479.47;5048173;28;20546;-95
2021/12/20 01:56:04;;;;;;;5.47;4.20;;;;;;;15.52;40.93;93482.94;5025594;28;20037;-92
2021/12/20 01:58:30;;;;;;;8.73;4.90;;;;;;;15.52;41.32;93480.22;5026889;28;20064;-96
2021/12/20 02:03:39;;;;;;;5.35;3.78;;;;;;;15.55;40.88;93487.41;5045408;28;20058;-89
2021/12/20 02:06:10;;;;;;;6.57;3.35;;;;;;;15.52;41.05;93490.34;5042185;28;20052;-94
2021/12/20 02:08:36;;;;;;;4.80;3.13;;;;;;;15.53;41.34;93483.69;5025069;28;20116;-92
2021/12/20 02:11:05;;;;;;;4.45;3.55;;;;;;;15.57;40.97;93484.22;5040018;28;20037;-94
2021/12/20 02:13:34;;;;;;;4.85;3.45;;;;;;;15.53;40.89;93483.69;5038600;28;20124;-94
2021/12/20 02:15:59;;;;;;;4.43;3.20;;;;;;;15.50;40.74;93469.06;5030672;28;20037;-92
2021/12/20 02:18:25;;;;;;;4.07;3.17;;;;;;;15.52;41.14;93474.00;5057710;28;20036;-95
2021/12/20 02:20:50;;;;;;;4.50;2.75;;;;;;;15.51;41.26;93478.72;5036175;28;20037;-94
2021/12/20 02:23:16;;;;;;;5.05;3.38;;;;;;;15.50;41.17;93474.50;5060614;28;20029;-90
2021/12/20 02:25:41;;;;;;;5.00;3.45;;;;;;;15.48;40.74;93468.78;5047562;28;20383;-92
2021/12/20 02:28:09;;;;;;;6.72;3.75;;;;;;;15.49;41.12;93477.72;5042161;28;20037;-95
2021/12/20 02:38:30;;;;;;;3.88;2.40;;;;;;;15.52;41.03;93458.41;5063422;28;20043;-94
2021/12/20 02:41:05;;;;;;;4.07;2.50;;;;;;;15.56;40.85;93455.47;5058898;28;20033;-89
2021/12/20 02:43:35;;;;;;;3.78;2.78;;;;;;;15.55;40.91;93467.59;5042041;28;20561;-94
2021/12/20 02:46:03;;;;;;;4.00;2.63;;;;;;;15.50;41.33;93471.78;5046352;28;20028;-94
2021/12/20 02:48:29;;;;;;;3.80;2.50;;;;;;;15.55;41.06;93467.59;5047061;28;20036;-95
2021/12/20 02:50:54;;;;;;;5.03;3.10;;;;;;;15.49;41.22;93470.28;5046404;28;20050;-95
2021/12/20 02:53:20;;;;;;;3.83;2.92;;;;;;;15.52;40.58;93463.13;5020899;28;20033;-89
2021/12/20 02:55:45;;;;;;;3.70;2.78;;;;;;;15.52;41.00;93469.31;5038054;28;20285;-94
2021/12/20 02:58:11;;;;;;;3.83;2.55;;;;;;;15.57;40.72;93476.78;5038703;28;20045;-94
2021/12/20 03:00:36;;;;;;;3.75;2.78;;;;;;;15.51;40.97;93483.41;5021597;28;20037;-91
2021/12/20 03:03:01;;;;;;;3.38;2.47;;;;;;;15.52;40.96;93490.34;5003913;28;20056;-89
2021/12/20 03:05:27;;;;;;;4.63;2.80;;;;;;;15.55;40.93;93486.66;5038119;28;20033;-91
2021/12/20 03:07:53;;;;;;;4.32;2.65;;;;;;;15.55;41.22;93487.41;5052529;28;20045;-96
2021/12/20 03:10:19;;;;;;;3.40;2.22;;;;;;;15.54;40.95;93482.44;5004077;28;20101;-96
2021/12/20 03:12:45;;;;;;;3.10;2.05;;;;;;;15.53;41.01;93492.59;5000768;28;20049;-92
2021/12/20 03:15:16;;;;;;;3.00;2.30;;;;;;;15.53;41.05;93498.03;5017374;28;20124;-90
2021/12/20 03:17:41;;;;;;;4.45;3.17;;;;;;;15.50;40.81;93490.84;5002741;28;20164;-95
2021/12/20 03:20:07;;;;;;;3.30;2.60;;;;;;;15.52;40.88;93506.72;4983446;28;20042;-93
2021/12/20 03:22:32;;;;;;;3.67;2.72;;;;;;;15.51;41.43;93497.78;4983963;28;20094;-92
2021/12/20 03:24:58;;;;;;;3.67;2.50;;;;;;;15.52;41.14;93493.09;5029042;28;20403;-92
2021/12/20 03:27:23;;;;;;;4.03;2.60;;;;;;;15.51;41.08;93486.16;5017842;28;20049;-93
2021/12/20 03:29:48;;;;;;;3.13;2.35;;;;;;;15.50;41.09;93499.03;5019375;28;20038;-89
2021/12/20 03:32:14;;;;;;;2.58;2.00;;;;;;;15.51;40.97;93491.59;4998783;28;20037;-96
2021/12/20 03:34:39;;;;;;;3.97;2.47;;;;;;;15.56;40.81;93505.28;5017617;28;20045;-91
2021/12/20 03:37:05;;;;;;;3.42;2.28;;;;;;;15.52;41.06;93501.25;5017226;28;20046;-92
2021/12/20 03:39:30;;;;;;;6.22;2.38;;;;;;;15.55;41.18;93495.56;5017540;28;20181;-95
2021/12/20 03:41:55;;;;;;;3.05;2.10;;;;;;;15.50;41.04;93485.41;5015816;28;20037;-90
2021/12/20 03:44:21;;;;;;;3.53;2.38;;;;;;;15.49;40.98;93494.81;5015570;28;20045;-91
2021/12/20 03:46:46;;;;;;;2.05;1.75;;;;;;;15.51;41.11;93491.59;5000469;28;20093;-91
2021/12/20 03:49:12;;;;;;;4.38;2.42;;;;;;;15.51;40.97;93491.59;5000023;28;20052;-90
2021/12/20 03:51:37;;;;;;;2.80;2.10;;;;;;;15.50;41.20;93490.84;5001655;28;20041;-95
2021/12/20 03:54:03;;;;;;;2.85;1.85;;;;;;;15.49;40.91;93489.34;5001268;28;20057;-94
2021/12/20 03:56:28;;;;;;;3.35;2.05;;;;;;;15.55;40.91;93487.41;4997128;28;20045;-89
2021/12/20 03:58:54;;;;;;;2.95;1.92;;;;;;;15.54;40.97;93507.72;4965958;28;20049;-91
2021/12/20 04:01:19;;;;;;;4.25;2.20;;;;;;;15.52;41.34;93504.72;4981420;28;20038;-96
2021/12/20 04:03:45;;;;;;;2.78;1.95;;;;;;;15.48;41.21;93492.56;5011605;28;20037;-91
2021/12/20 04:06:11;;;;;;;3.25;2.38;;;;;;;15.51;41.06;93502.50;5022130;28;20044;-96
2021/12/20 04:08:36;;;;;;;3.13;1.80;;;;;;;15.53;41.02;93500.78;5020849;28;20044;-93
2021/12/20 04:11:02;;;;;;;2.90;1.83;;;;;;;15.53;41.16;93500.78;5038801;28;20037;-90
2021/12/20 04:13:28;;;;;;;2.58;2.00;;;;;;;15.50;41.41;93504.47;5018710;28;20053;-92
2021/12/20 04:15:53;;;;;;;2.55;1.98;;;;;;;15.53;41.09;93500.78;5005461;28;20045;-93
2021/12/20 04:18:19;;;;;;;3.60;2.08;;;;;;;15.50;41.28;93504.47;5024751;28;20399;-92
2021/12/20 04:20:45;;;;;;;2.30;1.73;;;;;;;15.50;41.22;93514.63;5041996;28;20053;-92
2021/12/20 04:23:10;;;;;;;2.90;1.85;;;;;;;15.49;41.11;93507.69;5040539;28;20511;-96
2021/12/20 04:25:36;;;;;;;2.45;2.00;;;;;;;15.51;41.13;93513.38;5060748;28;20048;-93
2021/12/20 04:28:01;;;;;;;3.05;2.15;;;;;;;15.49;41.15;93511.16;5045385;28;20036;-96
2021/12/20 04:30:29;;;;;;;3.03;2.20;;;;;;;15.48;41.15;93506.94;5044950;28;20035;-94
2021/12/20 04:32:55;;;;;;;3.50;1.70;;;;;;;15.50;41.16;93511.91;5042097;28;20110;-95
2021/12/20 04:35:20;;;;;;;1.80;1.35;;;;;;;15.54;40.85;93520.59;5059765;28;20453;-90
2021/12/20 04:37:47;;;;;;;2.75;1.60;;;;;;;15.52;41.29;93528.50;5041452;28;20075;-95
2021/12/20 04:40:18;;;;;;;2.50;1.70;;;;;;;15.51;40.69;93525.03;5057364;28;20048;-94
2021/12/20 04:42:43;;;;;;;3.03;1.65;;;;;;;15.52;41.19;93523.06;5043200;28;20040;-92
2021/12/20 04:45:09;;;;;;;2.03;1.48;;;;;;;15.47;40.84;93534.66;5048673;28;20032;-93
2021/12/20 04:47:34;;;;;;;2.63;1.67;;;;;;;15.59;41.16;93539.69;5084060;28;20123;-96
2021/12/20 04:49:59;;;;;;;2.60;1.80;;;;;;;15.57;41.12;93536.00;5050728;28;20040;-89
2021/12/20 04:52:26;;;;;;;2.53;1.48;;;;;;;15.52;41.08;93536.69;5051321;28;20037;-93
2021/12/20 04:54:51;;;;;;;2.15;1.50;;;;;;;15.51;41.40;93533.22;5050474;28;20047;-90
2021/12/20 04:57:17;;;;;;;2.95;1.85;;;;;;;15.52;41.12;93529.25;5061162;28;20032;-93
2021/12/20 04:59:42;;;;;;;1.95;1.42;;;;;;;15.56;40.87;93532.53;5046282;28;20033;-95
2021/12/20 05:02:07;;;;;;;3.28;1.83;;;;;;;15.53;40.96;93530.00;5048102;28;20491;-95
2021/12/20 05:04:33;;;;;;;2.75;1.60;;;;;;;15.54;40.93;93536.94;5065306;28;20036;-96
2021/12/20 05:06:58;;;;;;;3.10;1.98;;;;;;;15.51;41.13;93546.81;5048691;28;20051;-93
2021/12/20 05:09:28;;;;;;;2.72;1.95;;;;;;;15.53;41.25;93552.53;5060191;28;20036;-93
2021/12/20 05:12:01;;;;;;;7.97;6.80;;;;;;;15.53;41.05;93547.09;5044820;28;20414;-91
2021/12/20 05:14:26;;;;;;;11.23;3.90;;;;;;;15.53;41.23;93549.81;5043040;28;20032;-91
2021/12/20 05:16:52;;;;;;;35.30;30.52;;;;;;;15.52;41.10;93545.59;5038495;28;20039;-96
2021/12/20 05:19:17;;;;;;;8.32;5.40;;;;;;;15.58;40.96;93549.13;5070535;28;20032;-94
2021/12/20 05:21:43;;;;;;;9.27;7.47;;;;;;;15.52;41.29;93561.19;5037404;28;20048;-93
2021/12/20 05:24:08;;;;;;;11.82;6.35;;;;;;;15.55;41.38;93560.97;5053470;28;20048;-93
2021/12/20 05:26:33;;;;;;;104.80;73.85;;;;;;;15.61;41.39;93561.75;5036878;28;20037;-89
2021/12/20 05:29:06;;;;;;;21.95;17.35;;;;;;;15.62;40.93;93565.97;5051824;28;20033;-90
2021/12/20 05:31:34;;;;;;;6.97;5.07;;;;;;;15.57;41.19;93566.72;5040391;28;20040;-91
2021/12/20 05:34:00;;;;;;;12.90;9.75;;;;;;;15.76;41.64;93569.75;5057395;28;20048;-92
2021/12/20 05:36:25;;;;;;;25.45;18.15;;;;;;;15.82;40.92;93575.97;5012063;28;20048;-91
2021/12/20 05:38:51;;;;;;;22.92;14.30;;;;;;;15.83;41.19;93573.97;5039477;28;20048;-89
2021/12/20 05:41:17;;;;;;;23.95;16.77;;;;;;;15.90;41.11;93587.91;5056835;28;20311;-90
2021/12/20 05:43:45;;;;;;;52.67;38.78;;;;;;;15.95;40.96;93584.44;5041546;28;20032;-91
2021/12/20 05:46:10;;;;;;;35.83;16.17;;;;;;;15.95;40.96;93592.63;5053809;28;20029;-89
2021/12/20 05:48:36;;;;;;;21.55;12.65;;;;;;;15.80;40.44;93596.78;5033098;28;20037;-89
2021/12/20 05:51:02;;;;;;;15.73;9.80;;;;;;;15.65;40.99;93596.94;5053147;28;20048;-91
2021/12/20 05:53:27;;;;;;;32.92;11.50;;;;;;;15.69;40.85;93605.66;5047081;28;20040;-92
2021/12/20 05:55:53;;;;;;;18.40;10.93;;;;;;;15.64;41.55;93606.34;5039380;28;20047;-92
2021/12/20 05:58:19;;;;;;;25.33;11.90;;;;;;;15.64;41.21;93604.38;5057205;28;20037;-91
2021/12/20 06:00:45;;;;;;;35.15;12.20;;;;;;;15.59;38.80;93616.00;5072368;28;20029;-91
2021/12/20 06:03:10;;;;;;;33.22;10.00;;;;;;;15.32;38.25;93609.13;5033190;28;20104;-90
2021/12/20 06:05:41;;;;;;;76.97;23.90;;;;;;;15.26;37.27;93610.31;5034157;28;20040;-91
2021/12/20 06:08:08;;;;;;;59.38;21.35;;;;;;;15.02;36.70;93619.56;5040126;28;20037;-90
2021/12/20 06:10:35;;;;;;;47.42;16.27;;;;;;;14.95;36.21;93613.78;5048782;28;20052;-87
2021/12/20 06:13:01;;;;;;;54.50;22.75;;;;;;;14.87;36.60;93605.34;5035875;28;20043;-88
2021/12/20 06:15:27;;;;;;;87.65;29.73;;;;;;;14.94;36.60;93609.59;5035319;28;20037;-87
2021/12/20 06:17:52;;;;;;;83.60;32.45;;;;;;;15.02;36.57;93614.13;5087850;28;20486;-91
2021/12/20 06:20:18;;;;;;;111.38;43.58;;;;;;;15.11;36.78;93618.66;5050730;28;20446;-90
2021/12/20 06:22:43;;;;;;;150.38;57.15;;;;;;;15.20;37.39;93618.44;5039061;28;20036;-89
2021/12/20 06:25:09;;;;;;;206.40;80.50;;;;;;;15.16;37.28;93620.63;5057854;28;20036;-90
2021/12/20 06:27:35;;;;;;;156.93;57.47;;;;;;;15.28;38.04;93608.59;5051587;28;20048;-91
2021/12/20 06:30:00;;;;;;;126.07;44.83;;;;;;;15.25;38.94;93609.56;5041121;28;20032;-88
2021/12/20 06:32:26;;;;;;;78.00;33.13;;;;;;;15.30;39.23;93613.56;5044835;28;20613;-91
2021/12/20 06:34:51;;;;;;;70.15;30.65;;;;;;;15.35;39.60;93612.88;5061550;28;20075;-87
2021/12/20 06:37:16;;;;;;;93.57;33.20;;;;;;;15.42;39.58;93613.16;5056489;28;20039;-86
2021/12/20 06:39:42;;;;;;;79.05;34.67;;;;;;;15.44;39.43;93627.03;5034567;28;20109;-87
2021/12/20 06:42:08;;;;;;;96.40;34.63;;;;;;;15.45;39.18;93625.06;5062307;28;20044;-87
2021/12/20 06:44:34;;;;;;;76.43;34.40;;;;;;;15.49;39.27;93638.44;5041206;28;20051;-88
2021/12/20 06:46:59;;;;;;;76.95;37.20;;;;;;;15.47;39.37;93632.75;5056924;28;20036;-90
2021/12/20 06:49:25;;;;;;;322.02;118.82;;;;;;;15.53;39.31;93636.25;5035960;28;20538;-87
2021/12/20 06:51:52;;;;;;;76.90;29.13;;;;;;;15.45;38.18;93633.22;5034803;28;20234;-86
2021/12/20 06:54:19;;;;;;;117.18;30.45;;;;;;;15.36;37.85;93647.78;5048783;28;20490;-89
2021/12/20 06:56:44;;;;;;;174.60;40.35;;;;;;;15.37;38.47;93645.81;5041720;28;20175;-89
2021/12/20 06:59:10;;;;;;;708.22;103.60;;;;;;;15.46;38.54;93645.63;5050462;28;20044;-85
2021/12/20 07:01:35;;;;;;;430.92;96.00;;;;;;;15.44;38.99;93656.25;5037648;28;20036;-88
2021/12/20 07:04:01;;;;;;;346.60;68.85;;;;;;;15.49;38.74;93652.06;5037513;28;20036;-86
2021/12/20 07:06:28;;;;;;;275.67;58.67;;;;;;;15.44;38.63;93648.06;5069901;28;20036;-86
2021/12/20 07:08:53;;;;;;;198.73;59.35;;;;;;;15.24;38.18;93648.19;5081142;28;20044;-87
2021/12/20 07:11:19;;;;;;;153.35;45.85;;;;;;;15.01;38.37;93652.69;5036250;28;20487;-85
2021/12/20 07:13:44;;;;;;;186.00;55.50;;;;;;;15.00;38.32;93649.25;5045157;28;20442;-90
2021/12/20 07:16:11;;;;;;;172.52;48.55;;;;;;;15.01;38.44;93639.84;5050869;28;20510;-84
2021/12/20 07:18:37;;;;;;;135.70;42.08;;;;;;;15.16;38.58;93642.41;5058392;28;20054;-91
2021/12/20 07:21:02;;;;;;;146.80;42.92;;;;;;;15.12;38.54;93644.63;5073598;28;20507;-87
2021/12/20 07:23:28;;;;;;;149.60;45.90;;;;;;;15.12;38.30;93643.91;5044335;28;20044;-87
2021/12/20 07:25:53;;;;;;;120.40;42.38;;;;;;;15.19;38.77;93643.44;5054433;28;20410;-87
2021/12/20 07:28:19;;;;;;;115.85;41.35;;;;;;;15.25;38.50;93644.97;5057153;28;20039;-85
2021/12/20 07:30:45;;;;;;;130.00;38.80;;;;;;;15.30;38.76;93655.16;5033829;28;20068;-88
2021/12/20 07:33:11;;;;;;;133.43;46.17;;;;;;;15.25;38.34;93641.50;5033458;28;20033;-88
2021/12/20 07:35:36;;;;;;;129.57;46.97;;;;;;;15.33;38.37;93643.31;5054963;28;20513;-88
2021/12/20 07:38:03;;;;;;;174.43;72.32;;;;;;;15.37;38.24;93654.00;5058754;28;20051;-85
2021/12/20 07:40:29;;;;;;;202.20;81.45;;;;;;;15.34;38.55;93654.94;5088192;28;20410;-86
2021/12/20 07:42:54;;;;;;;211.88;78.95;;;;;;;15.48;38.30;93650.56;5054601;28;20071;-89
2021/12/20 07:45:20;;;;;;;245.77;106.28;;;;;;;15.57;38.32;93650.44;5012806;28;20045;-87
2021/12/20 07:47:49;;;;;;;256.80;112.35;;;;;;;15.46;38.34;93659.22;5026969;28;20057;-88
2021/12/20 07:50:16;;;;;;;281.40;124.97;;;;;;;15.51;38.04;93658.53;5016314;28;20041;-86
2021/12/20 07:52:41;;;;;;;198.48;83.90;;;;;;;15.51;38.44;93663.22;5023737;28;20191;-88
2021/12/20 07:55:08;;;;;;;273.05;121.53;;;;;;;15.49;38.69;93658.28;5014870;28;20405;-89
2021/12/20 07:57:33;;;;;;;292.58;134.95;;;;;;;15.57;38.28;93653.91;4999783;28;20141;-88
2021/12/20 07:59:58;;;;;;;248.38;120.30;;;;;;;15.52;38.35;93651.09;5027368;28;20587;-85
2021/12/20 08:02:24;;;;;;;292.70;134.32;;;;;;;15.53;38.29;93656.06;5018693;28;20106;-86
2021/12/20 08:04:51;;;;;;;269.70;129.82;;;;;;;15.59;38.41;93659.59;5026967;28;20107;-88
2021/12/20 08:07:18;;;;;;;278.60;128.27;;;;;;;15.70;38.09;93665.13;5027179;28;20037;-86
2021/12/20 08:09:44;;;;;;;287.98;130.65;;;;;;;15.77;37.97;93661.94;5030660;28;20044;-90
2021/12/20 08:12:09;;;;;;;300.50;136.77;;;;;;;15.63;38.39;93660.09;5009295;28;20083;-86
2021/12/20 08:14:35;;;;;;;281.20;125.65;;;;;;;15.66;38.46;93658.41;5031751;28;20124;-89
2021/12/20 08:17:00;;;;;;;299.85;134.27;;;;;;;15.64;38.59;93660.84;5049804;28;20715;-86
2021/12/20 08:19:27;;;;;;;293.10;131.30;;;;;;;15.70;38.43;93665.13;5058479;28;20053;-90
2021/12/20 08:21:52;;;;;;;271.67;122.80;;;;;;;15.71;38.52;93660.41;5059450;28;20036;-86
2021/12/20 08:24:27;;;;;;;276.75;131.05;;;;;;;15.66;38.40;93674.75;5081973;28;20090;-87
2021/12/20 08:26:52;;;;;;;268.58;122.50;;;;;;;15.67;38.23;93678.97;5056304;28;20071;-87
2021/12/20 08:29:23;;;;;;;262.35;119.50;;;;;;;15.65;38.64;93687.63;5091408;28;20632;-88
2021/12/20 08:31:48;;;;;;;255.80;123.53;;;;;;;15.68;38.56;93675.00;5061413;28;20474;-88
2021/12/20 08:34:14;;;;;;;276.90;126.60;;;;;;;15.69;38.67;93676.50;5071248;28;20119;-90
2021/12/20 08:36:40;;;;;;;251.98;121.50;;;;;;;15.70;38.55;93669.81;5062084;28;20044;-88
2021/12/20 08:39:06;;;;;;;252.88;121.97;;;;;;;15.68;38.40;93681.19;5054148;28;20036;-88
2021/12/20 08:41:32;;;;;;;252.30;118.97;;;;;;;15.70;38.17;93683.44;5027893;28;20079;-87
2021/12/20 08:43:57;;;;;;;255.55;123.68;;;;;;;15.71;38.49;93674.78;5062284;28;20044;-86
2021/12/20 08:46:22;;;;;;;246.20;120.15;;;;;;;15.70;38.81;93686.16;5056333;28;20033;-85
2021/12/20 08:48:48;;;;;;;246.38;113.43;;;;;;;15.68;38.71;93686.66;5055451;28;20119;-86
2021/12/20 08:51:14;;;;;;;242.45;113.18;;;;;;;15.70;38.88;93695.09;5049075;28;20153;-88
2021/12/20 08:53:43;;;;;;;227.45;110.47;;;;;;;15.75;39.03;93690.91;5043877;28;20040;-90
2021/12/20 08:56:11;;;;;;;230.57;109.38;;;;;;;15.72;38.45;93691.88;5036316;28;20093;-91
2021/12/20 08:58:36;;;;;;;205.40;105.88;;;;;;;15.73;38.89;93699.56;5038137;28;20036;-89
2021/12/20 09:01:02;;;;;;;226.10;107.38;;;;;;;15.77;38.72;93691.19;5038451;28;20047;-90
2021/12/20 09:03:28;;;;;;;216.48;106.43;;;;;;;15.78;38.88;93703.56;5041114;28;20040;-90
2021/12/20 09:05:53;;;;;;;215.52;111.22;;;;;;;15.86;39.01;93706.56;5042603;28;20036;-90
2021/12/20 09:08:22;;;;;;;237.50;118.28;;;;;;;15.84;38.76;93709.03;5039426;28;20039;-92
2021/12/20 09:10:48;;;;;;;251.98;127.25;;;;;;;15.80;38.88;93711.28;5067309;28;20044;-92
2021/12/20 09:13:13;;;;;;;230.07;112.22;;;;;;;15.77;39.09;93702.09;5059212;28;20040;-91
2021/12/20 09:15:40;;;;;;;221.20;107.47;;;;;;;15.83;39.06;93713.00;5043663;28;20093;-92
2021/12/20 09:18:06;;;;;;;220.75;104.97;;;;;;;15.77;39.06;93710.25;5040183;28;20082;-92
2021/12/20 09:20:31;;;;;;;240.20;112.47;;;;;;;15.81;39.27;93718.94;5033416;28;20617;-92
2021/12/20 09:23:08;;;;;;;211.75;102.65;;;;;;;15.82;39.30;93719.69;5038334;28;20040;-89
2021/12/20 09:25:36;;;;;;;244.85;107.47;;;;;;;15.84;39.05;93712.50;5028171;28;20048;-90
2021/12/20 09:28:04;;;;;;;260.55;114.30;;;;;;;15.84;38.99;93719.94;5066448;28;20051;-87
2021/12/20 09:30:29;;;;;;;200.32;100.28;;;;;;;15.84;39.19;93717.22;5063030;28;20117;-91
2021/12/20 09:32:55;;;;;;;223.48;106.88;;;;;;;15.84;39.45;93715.25;5049524;28;20607;-90
2021/12/20 09:35:20;;;;;;;193.63;92.22;;;;;;;15.76;38.20;93717.69;5014484;28;20057;-90
2021/12/20 09:37:50;;;;;;;233.02;102.78;;;;;;;15.77;38.86;93719.19;5019604;28;20037;-91
2021/12/20 09:40:17;;;;;;;250.30;112.32;;;;;;;15.76;38.81;93725.88;5018388;28;20132;-92
2021/12/20 09:42:51;;;;;;;272.60;126.68;;;;;;;15.81;38.97;93715.47;5005025;28;20045;-91
2021/12/20 09:45:20;;;;;;;264.23;131.82;;;;;;;15.86;38.85;93720.22;5012979;28;20033;-89
2021/12/20 09:47:45;;;;;;;256.48;121.85;;;;;;;15.91;38.99;93716.78;5046973;28;20033;-89
2021/12/20 09:50:12;;;;;;;287.73;130.38;;;;;;;15.90;39.04;93720.72;5044467;28;20045;-88
2021/12/20 09:52:38;;;;;;;307.25;148.40;;;;;;;15.88;38.96;93707.59;5030639;28;20125;-92
2021/12/20 09:55:04;;;;;;;266.00;118.57;;;;;;;15.84;38.72;93711.75;5030391;28;20206;-87
2021/12/20 09:57:32;;;;;;;259.05;125.88;;;;;;;15.90;38.92;93712.56;5025197;28;20457;-87
2021/12/20 09:59:58;;;;;;;275.20;128.90;;;;;;;15.87;38.35;93706.09;5030800;28;20088;-88
2021/12/20 10:02:25;;;;;;;307.73;157.35;;;;;;;15.88;38.67;93706.84;4988067;28;20041;-86
2021/12/20 10:04:55;;;;;;;350.00;194.52;;;;;;;15.91;38.82;93712.06;5072740;28;20085;-89
2021/12/20 10:07:23;;;;;;;345.63;188.52;;;;;;;15.91;38.68;93714.06;5068142;28;20048;-90
2021/12/20 10:09:49;;;;;;;361.25;191.93;;;;;;;15.89;38.74;93698.19;5068164;28;20047;-93
2021/12/20 10:12:22;;;;;;;396.23;218.25;;;;;;;15.93;38.63;93700.69;5079114;28;20570;-89
2021/12/20 10:15:05;;;;;;;406.90;226.95;;;;;;;15.88;38.48;93702.13;5059677;28;20040;-86
2021/12/20 10:17:36;;;;;;;360.40;206.05;;;;;;;15.87;37.76;93703.38;5071176;28;20088;-86
2021/12/20 10:20:13;;;;;;;404.77;229.90;;;;;;;15.88;38.17;93704.13;5037679;28;20028;-90
2021/12/20 10:22:39;;;;;;;266.02;130.75;;;;;;;15.72;35.05;93705.50;5046504;28;20036;-89
2021/12/20 10:25:28;;;;;;;243.35;121.32;;;;;;;15.68;35.26;93707.72;5060163;28;20055;-86
2021/12/20 10:28:06;;;;;;;275.20;127.35;;;;;;;15.69;34.83;93714.66;5045239;28;20099;-91
2021/12/20 10:30:35;;;;;;;256.48;121.65;;;;;;;15.78;34.74;93714.47;5070035;28;20032;-89
2021/12/20 10:33:02;;;;;;;263.27;137.30;;;;;;;15.74;35.59;93711.97;5040977;28;20490;-91
2021/12/20 10:35:35;;;;;;;304.70;164.93;;;;;;;15.75;36.30;93710.00;5073287;28;20040;-91
2021/12/20 10:38:03;;;;;;;299.50;159.80;;;;;;;15.77;37.18;93707.53;5046301;28;20036;-88
2021/12/20 10:40:28;;;;;;;284.60;144.50;;;;;;;15.77;37.42;93710.25;5041290;28;20398;-92
2021/12/20 10:42:57;;;;;;;287.27;144.25;;;;;;;15.82;37.60;93706.06;5042899;28;20060;-91
2021/12/20 10:45:24;;;;;;;322.88;170.60;;;;;;;15.87;37.84;93711.53;5047035;28;20044;-93
2021/12/20 10:47:50;;;;;;;316.65;170.98;;;;;;;15.87;37.43;93708.81;5068381;28;20032;-93
2021/12/20 10:50:29;;;;;;;328.17;169.00;;;;;;;15.86;37.35;93707.31;5077371;28;20036;-92
2021/12/20 10:53:17;;;;;;;298.10;157.60;;;;;;;15.85;37.20;93700.38;5056263;28;20054;-91
2021/12/20 10:55:45;;;;;;;308.08;161.65;;;;;;;15.86;37.56;93701.88;5058043;28;20058;-93
2021/12/20 10:58:20;;;;;;;335.70;172.63;;;;;;;15.98;37.70;93703.44;5058760;28;20032;-88
2021/12/20 11:01:15;;;;;;;374.00;182.75;;;;;;;15.92;37.50;93705.38;5068894;28;20044;-89
2021/12/20 11:03:42;;;;;;;373.75;174.00;;;;;;;15.98;37.81;93703.44;5065814;28;20044;-86
2021/12/20 11:11:20;;;;;;;326.60;170.05;;;;;;;16.05;38.17;93699.50;5068904;28;20050;-88
2021/12/20 11:13:46;;;;;;;311.55;168.45;;;;;;;16.14;38.62;93698.56;5063324;28;20398;-87
2021/12/20 11:16:31;;;;;;;293.88;156.70;;;;;;;16.12;38.00;93707.22;5055920;28;20499;-89
2021/12/20 11:19:16;;;;;;;267.92;148.50;;;;;;;16.08;38.40;93709.44;5096525;28;20178;-88
2021/12/20 11:21:57;;;;;;;281.00;147.55;;;;;;;16.18;38.18;93696.34;5077704;28;20040;-86
2021/12/20 11:24:29;;;;;;;348.13;196.45;;;;;;;16.27;37.90;93701.56;5062626;28;20050;-89
2021/12/20 11:26:55;;;;;;;291.60;154.20;;;;;;;16.27;37.62;93707.78;5046968;28;20036;-86
2021/12/20 11:29:21;;;;;;;316.27;162.73;;;;;;;16.29;38.16;93696.38;5047234;28;20090;-86
2021/12/20 11:31:47;;;;;;;244.95;140.98;;;;;;;16.21;37.73;93687.94;5049919;28;20115;-88
2021/12/20 11:34:12;;;;;;;260.02;140.85;;;;;;;16.26;37.89;93694.63;5042361;28;20053;-91
2021/12/20 11:36:39;;;;;;;243.88;138.43;;;;;;;16.32;38.27;93696.16;5076364;28;20434;-86